Time;durP1;ratioP1;P1;durP2;ratioP2;P2;SDS_P1;SDS_P2;PMS_P1;PMS_P2;Temp;Humidity;BMP_temperature;BMP_pressure;BME280_temperature;BME280_humidity;BME280_pressure;Samples;Min_cycle;Max_cycle;Signal;HPM_P1;HPM_P2
2022/07/23 00:00:58;;;;;;;9.18;5.00;;;15.20;99.90;;;;;;4976002;28;20088;-87
2022/07/23 00:03:24;;;;;;;9.75;4.88;;;15.20;99.90;;;;;;5009937;28;20089;-86
2022/07/23 00:05:50;;;;;;;10.10;4.72;;;15.20;99.90;;;;;;4991075;28;20073;-87
2022/07/23 00:08:15;;;;;;;9.40;4.43;;;15.20;99.90;;;;;;5010578;28;20104;-86
2022/07/23 00:10:41;;;;;;;9.07;4.78;;;15.20;99.90;;;;;;4992515;28;20478;-86
2022/07/23 00:13:07;;;;;;;8.20;4.68;;;15.10;99.90;;;;;;4992159;28;20045;-86
2022/07/23 00:15:33;;;;;;;8.55;4.75;;;15.10;99.90;;;;;;4976211;28;20049;-87
2022/07/23 00:17:58;;;;;;;9.77;4.50;;;15.10;99.90;;;;;;4975711;28;20116;-87
2022/07/23 00:20:24;;;;;;;9.52;4.50;;;15.00;99.90;;;;;;4975902;28;20095;-87
2022/07/23 00:22:54;;;;;;;7.97;4.68;;;15.00;99.90;;;;;;4991405;28;20153;-87
2022/07/23 00:25:22;;;;;;;8.48;4.57;;;14.90;99.90;;;;;;4988971;28;20385;-86
2022/07/23 00:27:48;;;;;;;7.53;4.30;;;14.90;99.90;;;;;;5010026;28;20099;-86
2022/07/23 00:30:14;;;;;;;7.82;4.53;;;14.80;99.90;;;;;;5009012;28;20045;-87
2022/07/23 00:32:48;;;;;;;8.70;4.78;;;14.80;99.90;;;;;;4993220;28;20042;-86
2022/07/23 00:35:14;;;;;;;9.30;4.75;;;14.80;99.90;;;;;;4991160;28;20042;-87
2022/07/23 00:37:39;;;;;;;7.47;4.80;;;14.70;99.90;;;;;;5009170;28;20050;-86
2022/07/23 00:40:06;;;;;;;8.05;4.85;;;14.70;99.90;;;;;;4990184;28;20042;-87
2022/07/23 00:42:32;;;;;;;7.72;5.13;;;14.60;99.90;;;;;;5009574;28;20081;-86
2022/07/23 00:44:58;;;;;;;9.52;4.72;;;14.60;99.90;;;;;;5008511;28;20041;-87
2022/07/23 00:47:23;;;;;;;8.95;4.72;;;14.50;99.90;;;;;;4990698;28;20541;-86
2022/07/23 00:49:49;;;;;;;8.45;5.20;;;14.40;99.90;;;;;;4991112;28;20057;-86
2022/07/23 00:52:15;;;;;;;8.10;4.30;;;14.40;99.90;;;;;;5009346;28;20034;-87
2022/07/23 00:54:41;;;;;;;8.60;4.75;;;14.30;99.90;;;;;;4974750;28;20172;-87
2022/07/23 00:57:07;;;;;;;8.52;4.70;;;14.30;99.90;;;;;;4987057;28;20453;-86
2022/07/23 00:59:32;;;;;;;10.27;4.75;;;14.30;99.90;;;;;;4991494;28;20049;-87
2022/07/23 01:01:58;;;;;;;8.02;4.75;;;14.30;99.90;;;;;;4990935;28;20402;-87
2022/07/23 01:04:23;;;;;;;8.10;5.07;;;14.20;99.90;;;;;;4991327;28;20487;-87
2022/07/23 01:06:49;;;;;;;8.73;5.13;;;14.20;99.90;;;;;;4990906;28;20045;-86
2022/07/23 01:09:15;;;;;;;8.70;4.65;;;14.20;99.90;;;;;;4989481;28;20050;-86
2022/07/23 01:11:41;;;;;;;8.35;5.32;;;14.10;99.90;;;;;;4990824;28;20038;-86
2022/07/23 01:14:15;;;;;;;8.20;4.78;;;14.10;99.90;;;;;;4989265;28;20067;-86
2022/07/23 01:16:43;;;;;;;9.23;5.38;;;14.10;99.90;;;;;;4990898;28;20443;-86
2022/07/23 01:19:09;;;;;;;8.88;5.18;;;14.00;99.90;;;;;;4969712;28;20065;-86
2022/07/23 01:21:38;;;;;;;8.77;5.28;;;14.00;99.90;;;;;;5004513;28;20038;-86
2022/07/23 01:24:05;;;;;;;10.02;5.80;;;14.00;99.90;;;;;;4989823;28;20817;-85
2022/07/23 01:26:31;;;;;;;9.95;6.45;;;13.90;99.90;;;;;;4992361;28;20046;-86
2022/07/23 01:28:56;;;;;;;8.93;5.57;;;13.90;99.90;;;;;;4990196;28;20052;-86
2022/07/23 01:31:22;;;;;;;9.32;5.68;;;13.90;99.90;;;;;;5009529;28;20041;-86
2022/07/23 01:33:48;;;;;;;9.00;5.72;;;13.90;99.90;;;;;;4989658;28;20145;-85
2022/07/23 01:36:14;;;;;;;9.32;5.75;;;13.80;99.90;;;;;;4989756;28;20379;-86
2022/07/23 01:38:40;;;;;;;9.25;5.90;;;13.80;99.90;;;;;;5007207;28;20103;-86
2022/07/23 01:41:05;;;;;;;8.50;5.65;;;13.80;99.90;;;;;;4990269;28;20077;-86
2022/07/23 01:43:31;;;;;;;10.02;5.68;;;13.80;99.90;;;;;;4990292;28;20048;-85
2022/07/23 01:45:56;;;;;;;9.88;6.13;;;13.70;99.90;;;;;;4974192;28;20487;-86
2022/07/23 01:48:22;;;;;;;9.50;5.55;;;13.70;99.90;;;;;;5009240;28;20526;-86
2022/07/23 01:50:48;;;;;;;9.38;5.70;;;13.60;99.90;;;;;;4989378;28;20073;-86
2022/07/23 01:53:14;;;;;;;9.07;5.72;;;13.60;99.90;;;;;;4991289;28;20428;-86
2022/07/23 01:55:40;;;;;;;9.02;6.30;;;13.60;99.90;;;;;;4991549;28;20444;-85
2022/07/23 01:58:06;;;;;;;9.73;5.70;;;13.60;99.90;;;;;;4988913;28;20049;-85
2022/07/23 02:00:31;;;;;;;9.48;6.45;;;13.60;99.90;;;;;;4990175;28;20172;-85
2022/07/23 02:02:58;;;;;;;11.00;6.38;;;13.50;99.90;;;;;;5008383;28;20096;-85
2022/07/23 02:05:24;;;;;;;9.63;6.57;;;13.50;99.90;;;;;;5008004;28;20076;-85
2022/07/23 02:07:50;;;;;;;11.32;6.40;;;13.50;99.90;;;;;;4990164;28;20050;-85
2022/07/23 02:10:16;;;;;;;9.32;6.22;;;13.40;99.90;;;;;;4984978;28;20038;-85
2022/07/23 02:12:42;;;;;;;10.68;6.60;;;13.40;99.90;;;;;;4963435;28;20548;-86
2022/07/23 02:15:08;;;;;;;10.13;6.65;;;13.40;99.90;;;;;;4974176;28;20038;-86
2022/07/23 02:17:33;;;;;;;9.68;6.07;;;13.40;99.90;;;;;;5007753;28;20042;-86
2022/07/23 02:19:59;;;;;;;9.43;6.35;;;13.30;99.90;;;;;;4989303;28;20108;-86
2022/07/23 02:22:25;;;;;;;10.98;6.15;;;13.30;99.90;;;;;;4990091;28;20049;-86
2022/07/23 02:24:50;;;;;;;9.60;6.20;;;13.30;99.90;;;;;;4989920;28;20042;-86
2022/07/23 02:27:16;;;;;;;9.48;5.90;;;13.20;99.90;;;;;;4990677;28;20073;-85
2022/07/23 02:29:41;;;;;;;7.53;4.78;;;13.20;99.90;;;;;;4990808;28;20050;-85
2022/07/23 02:32:07;;;;;;;8.77;4.93;;;13.20;99.90;;;;;;4988928;28;20388;-86
2022/07/23 02:34:33;;;;;;;9.40;5.00;;;13.20;99.90;;;;;;5006753;28;20061;-86
2022/07/23 02:36:58;;;;;;;9.63;4.82;;;13.20;99.90;;;;;;5007092;28;20042;-86
2022/07/23 02:39:24;;;;;;;8.35;4.68;;;13.10;99.90;;;;;;4990319;28;20042;-86
2022/07/23 02:41:49;;;;;;;9.38;5.10;;;13.10;99.90;;;;;;4972606;28;20052;-85
2022/07/23 02:44:15;;;;;;;7.13;4.22;;;13.10;99.90;;;;;;5007278;28;20554;-85
2022/07/23 02:46:40;;;;;;;6.70;3.60;;;13.10;99.90;;;;;;4973655;28;20129;-86
2022/07/23 02:49:06;;;;;;;6.28;3.25;;;13.00;99.90;;;;;;4987503;28;20045;-86
2022/07/23 02:51:31;;;;;;;7.35;3.33;;;13.10;99.90;;;;;;4991033;28;20037;-85
2022/07/23 02:53:57;;;;;;;6.70;3.90;;;13.00;99.90;;;;;;5008698;28;20399;-86
2022/07/23 02:56:23;;;;;;;6.82;3.35;;;13.00;99.90;;;;;;4977962;28;20449;-86
2022/07/23 02:58:48;;;;;;;6.32;3.30;;;13.00;99.90;;;;;;4975946;28;20545;-87
2022/07/23 03:01:14;;;;;;;6.18;2.90;;;13.00;99.90;;;;;;4976920;28;20034;-87
2022/07/23 03:03:39;;;;;;;6.57;3.40;;;12.90;99.90;;;;;;4993001;28;20064;-86
2022/07/23 03:06:05;;;;;;;6.15;3.50;;;12.90;99.90;;;;;;5010646;28;20061;-87
2022/07/23 03:08:31;;;;;;;6.32;3.20;;;12.90;99.90;;;;;;4993948;28;20459;-87
2022/07/23 03:10:56;;;;;;;6.63;3.80;;;12.90;99.90;;;;;;4976379;28;20491;-87
2022/07/23 03:13:22;;;;;;;8.23;4.32;;;12.80;99.90;;;;;;4993134;28;20056;-86
2022/07/23 03:15:48;;;;;;;8.25;4.90;;;12.80;99.90;;;;;;5008263;28;20407;-86
2022/07/23 03:18:13;;;;;;;7.47;4.32;;;12.80;99.90;;;;;;4992701;28;20075;-87
2022/07/23 03:20:39;;;;;;;6.90;3.45;;;12.80;99.90;;;;;;4977460;28;20047;-87
2022/07/23 03:23:04;;;;;;;5.65;2.90;;;12.70;99.90;;;;;;4992640;28;20056;-87
2022/07/23 03:25:30;;;;;;;6.45;3.33;;;12.70;99.90;;;;;;5011354;28;20042;-87
2022/07/23 03:27:55;;;;;;;6.20;2.75;;;12.60;99.90;;;;;;4992067;28;20042;-87
2022/07/23 03:30:21;;;;;;;4.75;2.63;;;12.60;99.90;;;;;;4977701;28;20096;-87
2022/07/23 03:32:47;;;;;;;5.50;2.60;;;12.50;99.90;;;;;;4991668;28;20190;-87
2022/07/23 03:35:12;;;;;;;6.30;2.67;;;12.50;99.90;;;;;;4992921;28;20088;-87
2022/07/23 03:37:38;;;;;;;6.90;3.00;;;12.50;99.90;;;;;;5010985;28;20042;-87
2022/07/23 03:40:05;;;;;;;7.00;3.65;;;12.50;99.90;;;;;;4991971;28;20049;-87
2022/07/23 03:42:30;;;;;;;6.80;3.70;;;12.40;99.90;;;;;;4993564;28;20049;-87
2022/07/23 03:44:56;;;;;;;6.88;3.22;;;12.50;99.90;;;;;;5009268;28;20096;-87
2022/07/23 03:47:21;;;;;;;7.18;4.07;;;12.40;99.90;;;;;;4971514;28;20548;-87
2022/07/23 03:49:48;;;;;;;7.05;3.58;;;12.40;99.90;;;;;;5009170;28;20490;-87
2022/07/23 03:52:14;;;;;;;8.02;4.65;;;12.40;99.90;;;;;;4992894;28;20133;-87
2022/07/23 03:54:39;;;;;;;7.32;4.30;;;12.40;99.90;;;;;;4993177;28;20469;-87
2022/07/23 03:57:05;;;;;;;7.18;3.83;;;12.50;99.90;;;;;;4990088;28;20108;-87
2022/07/23 03:59:31;;;;;;;6.20;3.15;;;12.40;99.90;;;;;;4976917;28;20088;-87
2022/07/23 04:01:56;;;;;;;7.38;2.80;;;12.40;99.90;;;;;;4972968;28;20053;-87
2022/07/23 04:04:22;;;;;;;6.32;3.15;;;12.40;99.90;;;;;;4975097;28;20129;-88
2022/07/23 04:06:47;;;;;;;7.97;3.53;;;12.40;99.90;;;;;;4991748;28;20432;-88
2022/07/23 04:09:13;;;;;;;6.70;3.85;;;12.40;99.90;;;;;;4992666;28;20096;-87
2022/07/23 04:11:39;;;;;;;6.93;3.67;;;12.40;99.90;;;;;;4977297;28;20084;-87
2022/07/23 04:14:04;;;;;;;6.65;3.40;;;12.40;99.90;;;;;;4975746;28;20483;-87
2022/07/23 04:16:31;;;;;;;7.30;4.18;;;12.40;99.90;;;;;;5009235;28;20617;-88
2022/07/23 04:18:57;;;;;;;8.20;4.28;;;12.40;99.90;;;;;;4991606;28;20057;-86
2022/07/23 04:21:23;;;;;;;8.60;4.47;;;12.40;99.90;;;;;;5009990;28;20407;-87
2022/07/23 04:23:49;;;;;;;8.07;4.90;;;12.40;99.90;;;;;;5008662;28;20479;-87
2022/07/23 04:26:15;;;;;;;8.75;4.65;;;12.50;99.90;;;;;;4992521;28;20080;-87
2022/07/23 04:28:41;;;;;;;9.23;4.50;;;12.60;99.90;;;;;;5009251;28;20050;-87
2022/07/23 04:31:07;;;;;;;9.23;5.07;;;12.60;99.90;;;;;;4988392;28;20609;-86
2022/07/23 04:33:32;;;;;;;7.85;4.22;;;12.70;99.90;;;;;;4990293;28;20046;-87
2022/07/23 04:35:58;;;;;;;8.73;4.35;;;12.70;99.90;;;;;;4975887;28;20087;-86
2022/07/23 04:38:23;;;;;;;8.55;4.70;;;12.70;99.90;;;;;;4991981;28;20053;-86
2022/07/23 04:40:49;;;;;;;8.57;4.40;;;12.90;99.90;;;;;;4991956;28;20037;-87
2022/07/23 04:43:15;;;;;;;6.40;3.80;;;12.90;99.90;;;;;;5007695;28;20045;-87
2022/07/23 04:45:40;;;;;;;7.88;4.10;;;12.90;99.90;;;;;;4990835;28;20050;-86
2022/07/23 04:48:06;;;;;;;7.65;4.57;;;13.00;99.90;;;;;;4988890;28;20061;-86
2022/07/23 04:50:32;;;;;;;8.13;4.30;;;13.00;99.90;;;;;;4991476;28;20046;-88
2022/07/23 04:52:57;;;;;;;7.70;4.18;;;13.10;99.90;;;;;;4973662;28;20049;-91
2022/07/23 04:55:23;;;;;;;8.73;4.50;;;13.10;99.90;;;;;;4968506;28;20077;-90
2022/07/23 04:57:49;;;;;;;7.70;4.60;;;13.20;99.90;;;;;;4990568;28;20066;-89
2022/07/23 05:00:15;;;;;;;10.63;4.45;;;13.20;99.90;;;;;;4991708;28;20045;-88
2022/07/23 05:02:40;;;;;;;9.43;5.00;;;13.30;99.90;;;;;;4976395;28;20088;-90
2022/07/23 05:05:06;;;;;;;10.05;5.05;;;13.40;99.90;;;;;;4992372;28;20145;-90
2022/07/23 05:07:32;;;;;;;8.13;5.10;;;13.40;99.90;;;;;;4993553;28;20046;-90
2022/07/23 05:09:57;;;;;;;8.63;5.20;;;13.50;99.90;;;;;;5009646;28;20037;-90
2022/07/23 05:12:23;;;;;;;9.35;5.10;;;13.70;99.90;;;;;;4992456;28;20042;-91
2022/07/23 05:14:48;;;;;;;8.35;5.07;;;13.70;99.90;;;;;;5008324;28;20438;-89
2022/07/23 05:17:14;;;;;;;9.68;6.65;;;13.80;99.90;;;;;;4984796;28;20045;-93
2022/07/23 05:19:40;;;;;;;10.63;5.80;;;13.90;99.90;;;;;;4981857;28;20044;-93
2022/07/23 05:22:05;;;;;;;11.75;6.25;;;14.00;99.90;;;;;;4995795;28;20046;-93
2022/07/23 05:24:31;;;;;;;9.30;5.50;;;14.10;99.90;;;;;;4994539;28;20398;-92
2022/07/23 05:26:56;;;;;;;10.05;5.70;;;14.10;99.90;;;;;;4994098;28;20046;-92
2022/07/23 05:29:22;;;;;;;9.40;5.53;;;14.20;99.90;;;;;;5012575;28;20038;-92
2022/07/23 05:31:48;;;;;;;10.85;5.47;;;14.30;99.90;;;;;;5001799;28;20491;-92
2022/07/23 05:34:13;;;;;;;9.50;5.82;;;14.40;99.90;;;;;;5004775;28;20502;-95
2022/07/23 05:36:39;;;;;;;8.48;5.75;;;14.50;99.90;;;;;;5007244;28;20050;-93
2022/07/23 05:39:04;;;;;;;10.93;5.60;;;14.50;99.90;;;;;;4985902;28;20133;-92
2022/07/23 05:41:30;;;;;;;9.15;5.40;;;14.70;99.90;;;;;;4991323;28;20062;-93
2022/07/23 05:43:56;;;;;;;10.15;5.70;;;14.80;99.90;;;;;;4978397;28;20046;-92
2022/07/23 05:46:21;;;;;;;8.48;5.65;;;14.80;99.90;;;;;;4963153;28;20046;-93
2022/07/23 05:48:49;;;;;;;8.70;5.30;;;14.80;99.90;;;;;;4989582;28;20407;-92
2022/07/23 05:51:20;;;;;;;10.85;5.55;;;14.90;99.90;;;;;;4993474;28;20434;-93
2022/07/23 05:53:46;;;;;;;10.48;5.40;;;15.00;99.90;;;;;;5010057;28;20052;-93
2022/07/23 05:56:12;;;;;;;9.05;5.35;;;15.10;99.90;;;;;;4975911;28;20128;-93
2022/07/23 05:58:37;;;;;;;8.52;5.20;;;15.20;99.90;;;;;;4994415;28;20056;-94
2022/07/23 06:01:03;;;;;;;9.27;5.28;;;15.30;99.90;;;;;;4977592;28;20053;-93
2022/07/23 06:03:28;;;;;;;9.65;5.28;;;15.40;99.90;;;;;;4976159;28;20033;-92
2022/07/23 06:05:54;;;;;;;9.55;5.10;;;15.50;99.90;;;;;;4993565;28;20042;-93
2022/07/23 06:08:19;;;;;;;9.50;5.53;;;15.50;99.90;;;;;;4992390;28;20053;-93
2022/07/23 06:10:45;;;;;;;8.15;4.80;;;15.60;99.90;;;;;;4976591;28;20049;-93
2022/07/23 06:13:11;;;;;;;8.48;4.90;;;15.60;99.90;;;;;;5009702;28;20513;-91
2022/07/23 06:15:36;;;;;;;8.23;5.25;;;15.70;99.90;;;;;;5012276;28;20081;-93
2022/07/23 06:18:02;;;;;;;8.55;5.03;;;15.80;99.90;;;;;;4975057;28;20482;-92
2022/07/23 06:20:27;;;;;;;8.23;4.80;;;15.90;99.90;;;;;;4992572;28;20052;-93
2022/07/23 06:22:53;;;;;;;8.35;4.63;;;15.90;99.90;;;;;;4993333;28;20049;-90
2022/07/23 06:25:20;;;;;;;7.15;4.05;;;16.00;99.90;;;;;;4992980;28;20096;-92
2022/07/23 06:27:46;;;;;;;8.57;4.03;;;16.10;99.90;;;;;;4984121;28;20070;-91
2022/07/23 06:30:12;;;;;;;8.00;3.78;;;16.10;99.90;;;;;;4994500;28;20041;-90
2022/07/23 06:32:38;;;;;;;9.07;4.10;;;16.20;99.90;;;;;;4993209;28;20038;-94
2022/07/23 06:35:04;;;;;;;8.20;3.92;;;16.30;99.90;;;;;;4996212;28;20919;-90
2022/07/23 06:37:30;;;;;;;9.60;4.18;;;16.30;99.90;;;;;;4994047;28;20459;-89
2022/07/23 06:39:55;;;;;;;8.27;3.60;;;16.30;99.90;;;;;;5011951;28;20124;-89
2022/07/23 06:42:21;;;;;;;7.28;3.60;;;16.40;99.90;;;;;;4994972;28;20510;-89
2022/07/23 06:44:46;;;;;;;7.90;3.95;;;16.40;99.90;;;;;;4994798;28;20065;-92
2022/07/23 06:47:12;;;;;;;8.05;3.35;;;16.50;99.90;;;;;;4979145;28;20049;-92
2022/07/23 06:49:38;;;;;;;6.45;3.25;;;16.60;99.90;;;;;;4977376;28;20100;-90
2022/07/23 06:52:03;;;;;;;7.00;2.83;;;16.70;99.90;;;;;;4996381;28;20151;-94
2022/07/23 06:54:29;;;;;;;5.93;2.60;;;16.80;99.90;;;;;;4980579;28;20049;-92
2022/07/23 06:56:54;;;;;;;5.90;2.17;;;16.90;99.90;;;;;;4977623;28;20050;-92
2022/07/23 06:59:20;;;;;;;6.53;2.50;;;16.90;99.90;;;;;;4991887;28;20042;-91
2022/07/23 07:01:46;;;;;;;4.55;2.00;;;17.00;99.90;;;;;;4979971;28;20076;-90
2022/07/23 07:04:11;;;;;;;5.75;2.00;;;17.00;99.90;;;;;;5011808;28;20057;-93
2022/07/23 07:06:37;;;;;;;5.50;1.90;;;17.10;99.90;;;;;;4997010;28;20071;-89
2022/07/23 07:09:03;;;;;;;5.90;1.90;;;17.20;99.90;;;;;;5012686;28;20041;-94
2022/07/23 07:11:28;;;;;;;3.58;1.60;;;17.30;99.90;;;;;;4997215;28;20439;-88
2022/07/23 07:13:54;;;;;;;9.23;1.83;;;17.40;99.90;;;;;;5012825;28;20042;-90
2022/07/23 07:16:20;;;;;;;4.10;1.67;;;17.40;99.90;;;;;;5012270;28;20080;-89
2022/07/23 07:18:45;;;;;;;5.68;1.50;;;17.50;99.90;;;;;;4995268;28;20053;-90
2022/07/23 07:21:11;;;;;;;3.80;1.35;;;17.50;99.90;;;;;;5014400;28;20042;-91
2022/07/23 07:23:37;;;;;;;3.22;1.30;;;17.50;99.90;;;;;;5016432;28;20061;-93
2022/07/23 07:26:02;;;;;;;2.78;1.52;;;17.50;99.90;;;;;;4978336;28;20422;-91
2022/07/23 07:28:28;;;;;;;4.13;1.52;;;17.50;99.90;;;;;;5011435;28;20038;-90
2022/07/23 07:30:53;;;;;;;5.43;1.50;;;17.50;99.90;;;;;;4996001;28;20069;-90
2022/07/23 07:33:20;;;;;;;4.15;1.33;;;17.60;99.90;;;;;;4995945;28;20054;-89
2022/07/23 07:35:46;;;;;;;5.43;1.50;;;17.60;99.90;;;;;;5001704;28;20045;-91
2022/07/23 07:38:12;;;;;;;5.22;1.67;;;17.60;99.90;;;;;;5013709;28;20045;-90
2022/07/23 07:40:37;;;;;;;2.60;1.40;;;17.60;99.90;;;;;;4978575;28;20121;-91
2022/07/23 07:43:03;;;;;;;3.72;1.23;;;17.70;99.90;;;;;;4995434;28;20053;-91
2022/07/23 07:45:29;;;;;;;3.28;1.30;;;17.80;99.90;;;;;;4995457;28;20125;-91
2022/07/23 07:47:55;;;;;;;6.15;1.55;;;17.90;99.90;;;;;;4992534;28;20054;-90
2022/07/23 07:50:21;;;;;;;4.90;1.30;;;18.00;99.90;;;;;;4996571;28;20044;-91
2022/07/23 07:52:47;;;;;;;3.03;1.40;;;17.90;99.90;;;;;;4994162;28;20042;-93
2022/07/23 07:55:13;;;;;;;2.92;1.20;;;17.90;99.90;;;;;;4992502;28;20045;-93
2022/07/23 07:57:39;;;;;;;5.25;1.40;;;17.90;99.90;;;;;;4978185;28;20487;-94
2022/07/23 08:00:06;;;;;;;4.25;1.42;;;17.90;99.90;;;;;;4977442;28;20142;-90
2022/07/23 08:02:46;;;;;;;4.88;1.48;;;18.00;99.90;;;;;;5006531;28;20040;-92
2022/07/23 08:05:18;;;;;;;3.85;1.30;;;18.00;99.90;;;;;;5009102;28;20100;-94
2022/07/23 08:07:43;;;;;;;3.33;1.10;;;18.00;99.90;;;;;;4992189;28;20033;-89
2022/07/23 08:10:10;;;;;;;2.28;1.00;;;18.10;99.90;;;;;;5009007;28;20046;-88
2022/07/23 08:12:44;;;;;;;3.22;1.17;;;18.00;99.90;;;;;;4990941;28;20046;-87
2022/07/23 08:15:11;;;;;;;2.63;1.10;;;18.00;99.90;;;;;;5005135;28;20050;-87
2022/07/23 08:17:37;;;;;;;2.47;1.10;;;18.10;99.90;;;;;;5009490;28;20442;-88
2022/07/23 08:20:04;;;;;;;3.55;1.08;;;18.20;99.90;;;;;;4989459;28;20353;-87
2022/07/23 08:22:51;;;;;;;2.60;1.00;;;18.40;99.90;;;;;;5009201;28;20053;-86
2022/07/23 08:25:28;;;;;;;4.05;1.33;;;18.50;99.90;;;;;;4971805;28;20069;-88
2022/07/23 08:27:54;;;;;;;2.50;0.98;;;18.50;99.90;;;;;;4991595;28;20058;-87
2022/07/23 08:30:21;;;;;;;2.05;0.85;;;18.60;99.90;;;;;;4965327;28;20088;-89
2022/07/23 08:32:52;;;;;;;4.43;1.00;;;18.70;99.90;;;;;;4991192;28;20113;-89
2022/07/23 08:35:22;;;;;;;3.17;1.08;;;18.60;99.90;;;;;;4992746;28;20050;-90
2022/07/23 08:37:48;;;;;;;1.77;0.90;;;18.50;99.90;;;;;;4990725;28;20305;-88
2022/07/23 08:40:13;;;;;;;3.28;1.10;;;18.40;99.90;;;;;;4992349;28;20050;-87
2022/07/23 08:42:39;;;;;;;2.55;1.00;;;18.40;99.90;;;;;;4973018;28;20038;-87
2022/07/23 08:45:08;;;;;;;1.45;0.90;;;18.40;99.90;;;;;;4991596;28;20046;-86
2022/07/23 08:47:35;;;;;;;3.47;1.00;;;18.50;99.90;;;;;;4974004;28;20042;-89
2022/07/23 08:50:01;;;;;;;2.97;1.00;;;18.60;99.90;;;;;;4974199;28;20050;-86
2022/07/23 08:52:28;;;;;;;2.67;0.90;;;18.60;99.90;;;;;;4991504;28;20045;-89
2022/07/23 08:54:56;;;;;;;2.38;0.82;;;18.80;99.90;;;;;;5009523;28;20125;-87
2022/07/23 08:57:21;;;;;;;1.88;0.88;;;18.90;99.90;;;;;;4990929;28;20213;-90
2022/07/23 08:59:47;;;;;;;2.28;0.88;;;19.00;99.90;;;;;;4991492;28;20133;-86
2022/07/23 09:02:13;;;;;;;1.92;0.90;;;19.00;99.90;;;;;;5008003;28;20411;-88
2022/07/23 09:04:39;;;;;;;1.25;0.80;;;19.10;99.90;;;;;;5010188;28;20128;-85
2022/07/23 09:07:04;;;;;;;3.20;1.05;;;19.30;99.90;;;;;;4988590;28;20406;-89
2022/07/23 09:09:31;;;;;;;1.83;1.05;;;19.30;99.90;;;;;;5007500;28;20052;-93
2022/07/23 09:12:07;;;;;;;1.80;0.90;;;19.40;99.90;;;;;;4987293;28;20041;-88
2022/07/23 09:14:41;;;;;;;2.70;1.00;;;19.50;99.90;;;;;;5007270;28;20091;-85
2022/07/23 09:17:13;;;;;;;1.83;0.80;;;19.50;99.90;;;;;;5007595;28;20048;-87
2022/07/23 09:19:40;;;;;;;2.53;0.90;;;19.50;99.90;;;;;;4990651;28;20042;-88
2022/07/23 09:22:26;;;;;;;2.08;0.95;;;19.60;99.90;;;;;;4974431;28;20129;-88
2022/07/23 09:25:05;;;;;;;2.38;0.90;;;19.70;99.90;;;;;;5008736;28;20042;-88
2022/07/23 09:27:54;;;;;;;2.53;1.02;;;19.80;99.90;;;;;;4975986;28;20069;-87
2022/07/23 09:30:28;;;;;;;3.05;1.05;;;19.80;99.90;;;;;;4991659;28;20077;-92
2022/07/23 09:33:06;;;;;;;2.35;0.90;;;19.80;99.90;;;;;;4980025;28;20246;-89
2022/07/23 09:35:44;;;;;;;2.50;0.90;;;19.80;99.90;;;;;;4989074;28;20053;-88
2022/07/23 09:38:09;;;;;;;3.50;1.15;;;19.80;99.90;;;;;;5009146;28;20341;-87
2022/07/23 09:40:35;;;;;;;1.55;0.90;;;19.80;99.90;;;;;;4992374;28;20042;-91
2022/07/23 09:43:00;;;;;;;3.47;0.93;;;19.70;99.90;;;;;;4974684;28;20483;-88
2022/07/23 09:45:26;;;;;;;2.22;0.98;;;19.60;99.90;;;;;;5009974;28;20438;-88
2022/07/23 09:48:12;;;;;;;2.35;0.90;;;19.60;99.90;;;;;;5006946;28;20104;-86
2022/07/23 09:50:39;;;;;;;3.03;1.00;;;19.60;99.90;;;;;;5006648;28;20049;-87
2022/07/23 09:53:04;;;;;;;2.42;0.90;;;19.60;99.90;;;;;;4998895;28;20566;-90
2022/07/23 09:55:38;;;;;;;2.00;1.08;;;19.70;99.90;;;;;;5007122;28;20034;-90
2022/07/23 09:58:06;;;;;;;2.83;1.10;;;19.90;99.90;;;;;;5007949;28;20046;-89
2022/07/23 10:00:32;;;;;;;2.88;1.13;;;20.00;99.90;;;;;;4991163;28;20046;-89
2022/07/23 10:02:59;;;;;;;2.53;1.10;;;20.10;99.90;;;;;;4976288;28;20053;-91
2022/07/23 10:05:25;;;;;;;3.58;1.10;;;20.00;99.90;;;;;;5012201;28;20038;-87
2022/07/23 10:07:52;;;;;;;4.20;1.23;;;20.10;99.90;;;;;;4977798;28;20100;-89
2022/07/23 10:10:18;;;;;;;1.85;1.00;;;20.10;99.90;;;;;;5013463;28;20082;-90
2022/07/23 10:15:13;;;;;;;1.55;0.90;;;20.10;99.90;;;;;;4993502;28;20060;-88
2022/07/23 10:17:39;;;;;;;3.30;1.45;;;20.10;99.90;;;;;;5011762;28;20124;-89
2022/07/23 10:20:05;;;;;;;3.67;1.20;;;20.20;99.90;;;;;;4973729;28;20141;-87
2022/07/23 10:22:37;;;;;;;1.92;1.10;;;20.10;99.90;;;;;;5012549;28;20058;-88
2022/07/23 10:25:23;;;;;;;2.88;1.02;;;20.10;99.90;;;;;;4991620;28;20523;-88
2022/07/23 10:28:17;;;;;;;2.97;1.08;;;20.20;99.90;;;;;;5003543;28;20050;-89
2022/07/23 10:31:23;;;;;;;3.90;1.13;;;20.40;99.90;;;;;;4968597;28;20041;-89
2022/07/23 10:33:59;;;;;;;2.10;1.00;;;20.60;99.90;;;;;;4976721;28;20666;-91
2022/07/23 10:36:31;;;;;;;3.83;1.17;;;20.80;99.90;;;;;;4979364;28;20406;-91
2022/07/23 10:39:07;;;;;;;3.75;1.30;;;20.80;99.90;;;;;;4975068;28;20054;-90
2022/07/23 10:41:35;;;;;;;2.47;1.10;;;20.80;99.90;;;;;;5004714;28;20058;-88
2022/07/23 10:44:17;;;;;;;3.17;1.08;;;20.90;99.90;;;;;;4993578;28;20050;-89
2022/07/23 10:49:50;;;;;;;3.95;1.25;;;20.90;99.90;;;;;;5010934;28;20042;-92
2022/07/23 10:52:17;;;;;;;2.25;1.10;;;21.00;99.90;;;;;;5010549;28;20096;-93
2022/07/23 10:54:45;;;;;;;1.98;1.23;;;21.00;99.90;;;;;;4993336;28;20042;-91
2022/07/23 10:57:12;;;;;;;3.35;1.35;;;20.90;99.90;;;;;;4986396;28;20068;-91
2022/07/23 11:02:30;;;;;;;3.83;1.20;;;20.80;99.90;;;;;;4996225;28;20046;-93
2022/07/23 11:05:03;;;;;;;2.20;1.20;;;20.80;99.90;;;;;;4976552;28;20046;-92
2022/07/23 11:07:29;;;;;;;3.55;1.33;;;20.80;99.90;;;;;;5005075;23;20576;-93
2022/07/23 11:09:55;;;;;;;2.53;1.48;;;20.80;99.90;;;;;;5032346;28;20061;-95
2022/07/23 11:12:21;;;;;;;2.63;1.30;;;20.90;99.90;;;;;;5039807;28;20040;-96
2022/07/23 11:15:01;;;;;;;3.00;1.52;;;20.80;99.90;;;;;;5034030;28;20048;-93
2022/07/23 11:17:28;;;;;;;3.65;1.73;;;20.90;99.90;;;;;;5018494;28;20086;-91
2022/07/23 11:20:08;;;;;;;4.05;1.58;;;21.00;99.90;;;;;;5017713;28;20359;-92
2022/07/23 11:22:44;;;;;;;3.47;1.40;;;21.00;99.90;;;;;;5017858;28;20041;-94
2022/07/23 11:25:11;;;;;;;4.05;1.50;;;21.00;99.90;;;;;;4999872;28;20213;-92
2022/07/23 11:27:47;;;;;;;3.80;1.50;;;21.00;99.90;;;;;;5017945;28;20389;-94
2022/07/23 11:30:28;;;;;;;3.28;1.52;;;21.00;99.90;;;;;;5036019;28;20497;-96
2022/07/23 11:33:08;;;;;;;;;;;21.10;99.90;;;;;;5054344;28;20094;-91
2022/07/23 11:35:39;;;;;;;3.22;1.60;;;20.90;99.90;;;;;;5048274;28;19921;-94
2022/07/23 11:38:16;;;;;;;3.75;1.73;;;21.10;99.90;;;;;;5043209;28;20065;-93
2022/07/23 11:40:50;;;;;;;3.58;1.67;;;21.20;99.90;;;;;;5068891;28;20033;-96
2022/07/23 11:43:19;;;;;;;4.22;1.70;;;21.10;99.90;;;;;;5021240;28;20083;-91
2022/07/23 11:45:51;;;;;;;3.47;1.70;;;21.10;99.90;;;;;;5018797;28;20094;-92
2022/07/23 11:48:28;;;;;;;3.70;1.58;;;21.10;99.90;;;;;;5035453;28;20068;-93
2022/07/23 11:50:55;;;;;;;4.47;1.80;;;21.20;99.90;;;;;;5046777;28;20048;-94
2022/07/23 11:53:32;;;;;;;2.75;1.40;;;21.30;99.90;;;;;;5072921;28;20406;-90
2022/07/23 11:56:06;;;;;;;3.50;1.50;;;21.40;99.90;;;;;;5017086;28;20086;-96
2022/07/23 11:58:32;;;;;;;4.63;1.70;;;21.40;99.90;;;;;;5035441;28;20151;-92
2022/07/23 12:00:57;;;;;;;4.03;1.60;;;21.30;99.90;;;;;;5033449;28;20509;-92
2022/07/23 12:03:23;;;;;;;4.28;1.70;;;21.30;99.90;;;;;;5035071;28;20109;-92
2022/07/23 12:05:48;;;;;;;3.60;1.77;;;21.40;99.90;;;;;;5033617;28;20033;-93
2022/07/23 12:08:14;;;;;;;3.67;1.90;;;21.50;99.90;;;;;;5052679;28;20049;-90
2022/07/23 12:10:44;;;;;;;3.65;1.60;;;21.40;99.90;;;;;;5036044;28;20493;-93
2022/07/23 12:13:22;;;;;;;4.43;1.73;;;21.40;99.90;;;;;;5053351;28;20363;-95
2022/07/23 12:15:52;;;;;;;2.92;1.52;;;21.30;99.90;;;;;;5017783;28;20044;-94
2022/07/23 12:18:24;;;;;;;5.05;1.90;;;21.30;99.90;;;;;;5018655;28;20110;-91
2022/07/23 12:20:52;;;;;;;4.28;1.90;;;21.40;99.90;;;;;;5052019;28;20401;-94
2022/07/23 12:23:20;;;;;;;5.97;1.90;;;21.50;99.90;;;;;;5036701;28;20041;-96
2022/07/23 12:25:47;;;;;;;3.80;1.77;;;21.60;99.90;;;;;;5051195;28;20098;-93
2022/07/23 12:28:14;;;;;;;5.03;1.90;;;21.70;99.90;;;;;;5017621;28;20474;-88
2022/07/23 12:30:45;;;;;;;4.43;1.60;;;21.70;99.90;;;;;;5015286;28;20049;-91
2022/07/23 12:33:25;;;;;;;4.43;1.80;;;21.90;99.90;;;;;;5039144;28;20040;-88
2022/07/23 12:35:53;;;;;;;5.80;2.35;;;21.80;99.90;;;;;;5049569;28;20456;-89
2022/07/23 12:38:21;;;;;;;4.47;1.90;;;21.70;99.90;;;;;;5050799;28;20401;-89
2022/07/23 12:41:05;;;;;;;4.40;1.90;;;21.60;99.90;;;;;;5050391;28;20420;-87
2022/07/23 12:43:39;;;;;;;4.13;1.90;;;21.60;99.90;;;;;;5049461;28;20099;-88
2022/07/23 12:46:16;;;;;;;3.58;1.80;;;21.50;99.90;;;;;;5030537;28;20103;-87
2022/07/23 12:48:54;;;;;;;4.50;2.17;;;21.40;99.90;;;;;;5004451;28;20457;-89
2022/07/23 12:51:21;;;;;;;3.13;1.88;;;21.40;99.90;;;;;;5051902;28;20569;-91
2022/07/23 12:53:50;;;;;;;3.95;2.10;;;21.40;99.90;;;;;;5051750;28;20120;-88
2022/07/23 12:56:21;;;;;;;4.93;2.08;;;21.40;99.90;;;;;;5048780;28;20059;-92